createdAt,value
2018-12-13T00:00:52.105Z,94.90
2018-12-13T00:03:20.457Z,95.24
2018-12-13T00:05:48.789Z,94.85
2018-12-13T00:08:17.145Z,95.78
2018-12-13T00:10:45.953Z,95.12
2018-12-13T00:13:14.274Z,95.75
2018-12-13T00:15:42.577Z,95.38
2018-12-13T00:18:10.909Z,95.42
2018-12-13T00:20:39.209Z,95.67
2018-12-13T00:23:07.545Z,96.19
2018-12-13T00:25:35.833Z,95.69
2018-12-13T00:28:04.276Z,95.86
2018-12-13T00:30:32.598Z,96.40
2018-12-13T00:33:00.905Z,95.96
2018-12-13T00:35:29.241Z,96.25
2018-12-13T00:37:57.636Z,96.44
2018-12-13T00:40:25.957Z,96.12
2018-12-13T00:42:54.273Z,95.88
2018-12-13T00:45:22.621Z,95.99
2018-12-13T00:47:50.941Z,96.12
2018-12-13T00:50:19.274Z,96.73
2018-12-13T00:52:47.573Z,95.92
2018-12-13T00:55:15.889Z,95.82
2018-12-13T00:57:44.231Z,95.63
2018-12-13T01:00:12.676Z,96.01
2018-12-13T01:02:40.972Z,96.16
2018-12-13T01:05:09.297Z,95.79
2018-12-13T01:07:37.937Z,95.82
2018-12-13T01:10:06.517Z,95.31
2018-12-13T01:12:35.149Z,95.87
2018-12-13T01:15:03.621Z,95.90
2018-12-13T01:17:31.982Z,95.48
2018-12-13T01:20:00.308Z,95.71
2018-12-13T01:22:28.625Z,96.18
2018-12-13T01:24:56.937Z,96.29
2018-12-13T01:27:25.608Z,95.95
2018-12-13T01:29:53.942Z,96.13
2018-12-13T01:32:22.345Z,96.13
2018-12-13T01:34:50.664Z,96.33
2018-12-13T01:37:18.965Z,96.43
2018-12-13T01:39:47.335Z,96.35
2018-12-13T01:42:15.752Z,95.89
2018-12-13T01:44:46.169Z,96.29
2018-12-13T01:47:14.605Z,95.60
2018-12-13T01:49:43.165Z,96.46
2018-12-13T01:52:11.618Z,96.31
2018-12-13T01:54:41.364Z,97.16
2018-12-13T01:57:10.102Z,96.59
2018-12-13T01:59:38.413Z,97.42
2018-12-13T02:02:06.765Z,97.32
2018-12-13T02:04:35.078Z,98.45
2018-12-13T02:07:03.409Z,98.34
2018-12-13T02:09:31.714Z,99.40
2018-12-13T02:12:00.067Z,99.34
2018-12-13T02:14:28.385Z,100.00
2018-12-13T02:16:56.752Z,100.00
2018-12-13T02:19:25.363Z,100.00
2018-12-13T02:21:53.822Z,100.00
2018-12-13T02:24:22.155Z,100.00
2018-12-13T02:26:50.494Z,100.00
2018-12-13T02:29:18.805Z,100.00
2018-12-13T02:31:47.137Z,100.00
2018-12-13T02:34:15.520Z,100.00
2018-12-13T02:36:43.875Z,100.00
2018-12-13T02:39:12.256Z,100.00
2018-12-13T02:41:40.582Z,100.00
2018-12-13T02:44:08.937Z,100.00
2018-12-13T02:46:37.270Z,100.00
2018-12-13T02:49:08.642Z,100.00
2018-12-13T02:51:36.971Z,100.00
2018-12-13T02:54:05.567Z,100.00
2018-12-13T02:56:33.893Z,100.00
2018-12-13T02:59:02.349Z,100.00
2018-12-13T03:01:30.683Z,100.00
2018-12-13T03:03:59.121Z,99.84
2018-12-13T03:06:27.430Z,100.00
2018-12-13T03:08:55.766Z,100.00
2018-12-13T03:11:24.203Z,100.00
2018-12-13T03:13:52.550Z,100.00
2018-12-13T03:16:21.062Z,100.00
2018-12-13T03:18:49.465Z,99.87
2018-12-13T03:21:17.785Z,100.00
2018-12-13T03:23:46.133Z,100.00
2018-12-13T03:26:14.446Z,100.00
2018-12-13T03:28:42.781Z,100.00
2018-12-13T03:31:11.097Z,99.68
2018-12-13T03:33:39.913Z,99.61
2018-12-13T03:36:08.244Z,100.00
2018-12-13T03:38:36.577Z,100.00
2018-12-13T03:41:05.186Z,99.75
2018-12-13T03:43:33.862Z,100.00
2018-12-13T03:46:02.187Z,100.00
2018-12-13T03:48:30.525Z,99.90
2018-12-13T03:50:58.833Z,99.95
2018-12-13T03:53:27.154Z,100.00
2018-12-13T03:55:55.469Z,100.00
2018-12-13T03:58:26.213Z,99.56
2018-12-13T04:00:54.540Z,99.46
2018-12-13T04:03:22.865Z,99.30
2018-12-13T04:05:51.179Z,99.68
2018-12-13T04:08:19.506Z,99.44
2018-12-13T04:10:47.944Z,98.75
2018-12-13T04:13:16.261Z,97.66
2018-12-13T04:15:44.909Z,97.54
2018-12-13T04:18:13.225Z,97.41
2018-12-13T04:20:41.545Z,97.87
2018-12-13T04:23:10.471Z,97.49
2018-12-13T04:25:38.791Z,97.65
2018-12-13T04:28:07.121Z,97.62
2018-12-13T04:30:35.482Z,97.44
2018-12-13T04:33:03.795Z,97.48
2018-12-13T04:35:32.130Z,98.08
2018-12-13T04:38:00.457Z,97.63
2018-12-13T04:40:28.819Z,97.80
2018-12-13T04:42:57.130Z,97.17
2018-12-13T04:45:25.483Z,97.10
2018-12-13T04:47:53.782Z,97.46
2018-12-13T04:50:22.105Z,96.91
2018-12-13T04:52:50.441Z,96.88
2018-12-13T04:55:18.858Z,97.20
2018-12-13T04:57:47.251Z,96.53
2018-12-13T05:00:15.701Z,96.79
2018-12-13T05:02:44.021Z,96.50
2018-12-13T05:05:12.366Z,97.23
2018-12-13T05:07:41.918Z,96.99
2018-12-13T05:10:16.877Z,97.46
2018-12-13T05:12:45.189Z,96.85
2018-12-13T05:15:13.521Z,97.54
2018-12-13T05:17:41.833Z,96.94
2018-12-13T05:20:10.397Z,96.93
2018-12-13T05:22:38.985Z,97.06
2018-12-13T05:25:07.521Z,96.94
2018-12-13T05:27:36.146Z,96.90
2018-12-13T05:30:04.934Z,97.67
2018-12-13T05:32:33.277Z,97.25
2018-12-13T05:35:01.697Z,97.10
2018-12-13T05:37:30.018Z,96.97
2018-12-13T05:39:58.410Z,96.38
2018-12-13T05:42:27.421Z,96.66
2018-12-13T05:44:55.714Z,96.46
2018-12-13T05:47:24.041Z,96.34
2018-12-13T05:49:52.370Z,96.36
2018-12-13T05:52:20.697Z,96.52
2018-12-13T05:54:48.977Z,96.09
2018-12-13T05:57:17.293Z,95.94
2018-12-13T05:59:45.601Z,96.20
2018-12-13T06:02:14.190Z,96.41
2018-12-13T06:04:42.545Z,96.60
2018-12-13T06:07:11.927Z,96.97
2018-12-13T06:09:41.081Z,96.79
2018-12-13T06:12:10.590Z,96.42
2018-12-13T06:14:38.946Z,96.22
2018-12-13T06:17:07.253Z,95.88
2018-12-13T06:19:35.556Z,94.99
2018-12-13T06:22:03.881Z,95.82
2018-12-13T06:24:37.666Z,95.62
2018-12-13T06:27:06.010Z,95.34
2018-12-13T06:29:34.317Z,94.76
2018-12-13T06:32:02.678Z,95.42
2018-12-13T06:34:31.110Z,94.87
2018-12-13T06:36:59.422Z,95.53
2018-12-13T06:39:27.749Z,94.67
2018-12-13T06:41:56.065Z,95.23
2018-12-13T06:44:24.409Z,94.80
2018-12-13T06:46:53.537Z,95.76
2018-12-13T06:49:21.848Z,95.23
2018-12-13T06:51:50.161Z,94.71
2018-12-13T06:54:18.494Z,94.98
2018-12-13T06:56:46.797Z,95.03
2018-12-13T06:59:15.127Z,93.90
2018-12-13T07:01:43.516Z,93.25
2018-12-13T07:04:11.853Z,92.56
2018-12-13T07:06:40.181Z,93.14
2018-12-13T07:09:08.512Z,92.58
2018-12-13T07:11:36.827Z,93.23
2018-12-13T07:14:06.392Z,92.99
2018-12-13T07:16:35.309Z,92.71
2018-12-13T07:19:03.988Z,93.21
2018-12-13T07:21:32.327Z,93.16
2018-12-13T07:24:00.632Z,93.22
2018-12-13T07:26:28.938Z,92.10
2018-12-13T07:28:57.270Z,92.71
2018-12-13T07:31:25.568Z,91.50
2018-12-13T07:33:53.976Z,92.01
2018-12-13T07:36:22.321Z,92.63
2018-12-13T07:38:50.632Z,92.81
2018-12-13T07:41:19.364Z,92.01
2018-12-13T07:43:47.809Z,91.70
2018-12-13T07:46:16.165Z,91.62
2018-12-13T07:48:44.560Z,91.76
2018-12-13T07:51:12.915Z,91.64
2018-12-13T07:53:41.205Z,91.03
2018-12-13T07:56:09.536Z,91.71
2018-12-13T07:58:37.850Z,91.96
2018-12-13T08:01:06.170Z,91.79
2018-12-13T08:03:34.498Z,91.21
2018-12-13T08:06:02.946Z,90.68
2018-12-13T08:08:31.277Z,90.93
2018-12-13T08:10:59.621Z,90.33
2018-12-13T08:13:27.930Z,90.78
2018-12-13T08:15:56.273Z,90.54
2018-12-13T08:18:24.577Z,89.49
2018-12-13T08:20:52.917Z,89.33
2018-12-13T08:23:21.236Z,88.11
2018-12-13T08:25:49.570Z,88.12
2018-12-13T08:28:17.892Z,88.99
2018-12-13T08:30:46.280Z,88.38
2018-12-13T08:33:14.665Z,88.64
2018-12-13T08:35:42.984Z,87.87
2018-12-13T08:38:11.277Z,85.66
2018-12-13T08:40:39.729Z,84.93
2018-12-13T08:43:08.032Z,82.86
2018-12-13T08:45:36.329Z,81.55
2018-12-13T08:48:04.685Z,81.41
2018-12-13T08:50:33.002Z,82.50
2018-12-13T08:53:01.321Z,83.30
2018-12-13T08:55:29.621Z,81.46
2018-12-13T08:57:58.185Z,81.79
2018-12-13T09:00:26.497Z,82.95
2018-12-13T09:02:54.849Z,82.66
2018-12-13T09:05:23.139Z,83.15
2018-12-13T09:07:51.460Z,82.75
2018-12-13T09:10:19.764Z,83.39
2018-12-13T09:12:48.193Z,83.11
2018-12-13T09:15:16.524Z,81.44
2018-12-13T09:17:44.852Z,80.10
2018-12-13T09:20:13.281Z,80.43
2018-12-13T09:22:42.025Z,80.00
2018-12-13T09:25:10.443Z,81.04
2018-12-13T09:27:38.795Z,81.22
2018-12-13T09:30:07.837Z,81.93
2018-12-13T09:32:36.179Z,80.92
2018-12-13T09:35:05.061Z,81.79
2018-12-13T09:37:33.389Z,82.45
2018-12-13T09:40:01.699Z,80.62
2018-12-13T09:42:30.008Z,80.41
2018-12-13T09:44:58.305Z,79.45
2018-12-13T09:47:26.649Z,76.48
2018-12-13T09:49:54.964Z,76.06
2018-12-13T09:52:23.306Z,67.99
2018-12-13T09:54:51.617Z,69.27
2018-12-13T09:57:19.941Z,67.78
2018-12-13T09:59:48.245Z,62.03
2018-12-13T10:02:16.557Z,64.01
2018-12-13T10:04:44.882Z,64.84
2018-12-13T10:07:13.180Z,68.73
2018-12-13T10:09:41.506Z,64.84
2018-12-13T10:12:09.806Z,68.05
2018-12-13T10:14:38.129Z,67.41
2018-12-13T10:17:06.429Z,65.64
2018-12-13T10:19:34.969Z,63.44
2018-12-13T10:22:03.287Z,61.78
2018-12-13T10:24:31.646Z,57.57
2018-12-13T10:26:59.957Z,61.78
2018-12-13T10:29:28.269Z,65.82
2018-12-13T10:31:56.812Z,68.09
2018-12-13T10:34:25.129Z,65.98
2018-12-13T10:36:53.434Z,54.19
2018-12-13T10:39:21.781Z,54.31
2018-12-13T10:41:50.654Z,57.01
2018-12-13T10:44:23.158Z,57.61
2018-12-13T10:46:51.809Z,54.78
2018-12-13T10:49:20.121Z,59.78
2018-12-13T10:51:48.838Z,62.37
2018-12-13T10:54:17.489Z,65.65
2018-12-13T10:56:46.117Z,66.38
2018-12-13T10:59:14.434Z,65.40
2018-12-13T11:01:44.753Z,62.92
2018-12-13T11:04:13.076Z,65.15
2018-12-13T11:06:41.413Z,51.69
2018-12-13T11:09:09.801Z,41.67
2018-12-13T11:11:38.128Z,38.49
2018-12-13T11:14:06.449Z,36.25
2018-12-13T11:16:34.766Z,34.50
2018-12-13T11:19:03.454Z,35.40
2018-12-13T11:21:31.756Z,31.34
2018-12-13T11:24:00.073Z,29.62
2018-12-13T11:26:28.842Z,29.45
2018-12-13T11:29:34.449Z,31.81
2018-12-13T11:32:02.780Z,29.30
2018-12-13T11:34:31.093Z,30.99
2018-12-13T11:36:59.705Z,34.43
2018-12-13T11:39:28.028Z,34.25
2018-12-13T11:41:56.361Z,33.73
2018-12-13T11:44:26.295Z,34.51
2018-12-13T11:46:54.973Z,34.20
2018-12-13T11:49:23.626Z,32.47
2018-12-13T11:51:51.957Z,32.08
2018-12-13T11:54:41.635Z,29.30
2018-12-13T11:57:10.069Z,31.42
2018-12-13T11:59:38.554Z,32.05
2018-12-13T12:02:07.009Z,31.88
2018-12-13T12:04:35.314Z,31.28
2018-12-13T12:07:03.857Z,31.14
2018-12-13T12:09:32.969Z,29.87
2018-12-13T12:12:01.469Z,30.78
2018-12-13T12:14:29.920Z,32.31
2018-12-13T12:16:59.459Z,31.08
2018-12-13T12:19:27.761Z,32.38
2018-12-13T12:21:56.077Z,30.62
2018-12-13T12:24:24.839Z,31.18
2018-12-13T12:26:53.392Z,30.85
2018-12-13T12:29:21.707Z,31.84
2018-12-13T12:31:50.038Z,27.51
2018-12-13T12:34:18.349Z,28.27
2018-12-13T12:36:46.809Z,29.21
2018-12-13T12:39:18.506Z,31.12
2018-12-13T12:41:45.626Z,30.81
2018-12-13T12:44:13.924Z,33.91
2018-12-13T12:46:42.265Z,31.63
2018-12-13T12:49:10.569Z,30.13
2018-12-13T12:51:39.234Z,34.95
2018-12-13T12:54:08.333Z,43.80
2018-12-13T12:56:36.675Z,48.24
2018-12-13T12:59:05.005Z,51.39
2018-12-13T13:01:33.681Z,52.78
2018-12-13T13:04:01.981Z,54.75
2018-12-13T13:06:30.302Z,56.52
2018-12-13T13:08:58.614Z,56.79
2018-12-13T13:11:27.054Z,58.78
2018-12-13T13:13:55.361Z,59.56
2018-12-13T13:16:23.657Z,61.73
2018-12-13T13:18:51.970Z,61.62
2018-12-13T13:21:20.292Z,61.31
2018-12-13T13:23:48.613Z,62.29
2018-12-13T13:26:16.933Z,62.32
2018-12-13T13:28:45.267Z,63.65
2018-12-13T13:31:13.690Z,63.06
2018-12-13T13:33:42.021Z,63.42
2018-12-13T13:36:10.333Z,64.05
2018-12-13T13:38:38.659Z,64.32
2018-12-13T13:41:07.045Z,65.34
2018-12-13T13:43:35.381Z,64.46
2018-12-13T13:46:03.809Z,64.97
2018-12-13T13:48:32.129Z,64.41
2018-12-13T13:51:00.432Z,64.52
2018-12-13T13:53:28.772Z,64.28
2018-12-13T13:55:57.097Z,64.65
2018-12-13T13:58:25.523Z,65.67
2018-12-13T14:00:53.842Z,65.00
2018-12-13T14:03:22.184Z,65.65
2018-12-13T14:05:50.480Z,65.35
2018-12-13T14:08:18.825Z,64.87
2018-12-13T14:10:47.265Z,65.34
2018-12-13T14:13:15.590Z,65.49
2018-12-13T14:15:43.888Z,66.14
2018-12-13T14:18:12.205Z,64.62
2018-12-13T14:20:40.746Z,65.37
2018-12-13T14:23:09.954Z,64.51
2018-12-13T14:25:38.429Z,65.15
2018-12-13T14:28:06.731Z,66.32
2018-12-13T14:30:35.184Z,65.68
2018-12-13T14:33:03.494Z,66.44
2018-12-13T14:35:32.370Z,64.83
2018-12-13T14:38:00.677Z,65.63
2018-12-13T14:40:29.078Z,65.47
2018-12-13T14:42:57.390Z,67.19
2018-12-13T14:45:25.803Z,65.64
2018-12-13T14:47:54.270Z,67.22
2018-12-13T14:50:22.766Z,67.65
2018-12-13T14:52:51.057Z,66.89
2018-12-13T14:55:19.506Z,67.88
2018-12-13T14:57:47.797Z,67.21
2018-12-13T15:00:16.244Z,67.67
2018-12-13T15:02:44.560Z,68.84
2018-12-13T15:05:13.245Z,68.77
2018-12-13T15:07:41.578Z,69.14
2018-12-13T15:10:11.129Z,70.49
2018-12-13T15:12:39.414Z,70.18
2018-12-13T15:15:07.852Z,70.17
2018-12-13T15:17:36.157Z,70.90
2018-12-13T15:20:04.902Z,71.42
2018-12-13T15:22:33.218Z,71.05
2018-12-13T15:25:01.560Z,71.77
2018-12-13T15:27:29.872Z,70.71
2018-12-13T15:29:58.185Z,72.10
2018-12-13T15:32:26.539Z,73.01
2018-12-13T15:34:54.857Z,72.98
2018-12-13T15:37:23.448Z,73.42
2018-12-13T15:39:57.070Z,72.55
2018-12-13T15:42:22.101Z,74.06
2018-12-13T15:44:50.397Z,74.03
2018-12-13T15:47:18.741Z,74.35
2018-12-13T15:49:47.457Z,75.63
2018-12-13T15:52:15.806Z,75.73
2018-12-13T15:54:44.102Z,74.90
2018-12-13T15:57:12.459Z,76.20
2018-12-13T15:59:40.763Z,76.00
2018-12-13T16:02:09.090Z,74.64
2018-12-13T16:04:37.393Z,74.36
2018-12-13T16:07:05.755Z,75.21
2018-12-13T16:09:34.046Z,75.73
2018-12-13T16:12:02.373Z,74.93
2018-12-13T16:14:31.029Z,74.63
2018-12-13T16:16:59.350Z,74.92
2018-12-13T16:19:28.266Z,74.97
2018-12-13T16:21:57.156Z,74.27
2018-12-13T16:24:25.586Z,75.29
2018-12-13T16:26:53.925Z,74.05
2018-12-13T16:29:22.282Z,75.32
2018-12-13T16:31:50.588Z,74.39
2018-12-13T16:34:19.177Z,75.69
2018-12-13T16:36:48.863Z,74.87
2018-12-13T16:39:17.654Z,74.79
2018-12-13T16:41:46.201Z,75.09
2018-12-13T16:44:14.562Z,74.92
2018-12-13T16:46:42.952Z,74.73
2018-12-13T16:49:11.294Z,75.93
2018-12-13T16:51:40.353Z,74.71
2018-12-13T16:54:08.710Z,75.48
2018-12-13T16:56:38.414Z,75.13
2018-12-13T16:59:07.465Z,75.15
2018-12-13T17:01:36.554Z,74.87
2018-12-13T17:04:04.900Z,75.82
2018-12-13T17:06:33.232Z,76.12
2018-12-13T17:09:01.902Z,75.25
2018-12-13T17:11:30.225Z,74.81
2018-12-13T17:13:58.674Z,75.56
2018-12-13T17:16:27.315Z,75.76
2018-12-13T17:18:56.910Z,74.70
2018-12-13T17:21:26.173Z,75.12
2018-12-13T17:23:54.783Z,74.72
2018-12-13T17:26:23.374Z,75.05
2018-12-13T17:28:51.705Z,74.62
2018-12-13T17:31:20.933Z,75.25
2018-12-13T17:33:49.265Z,75.21
2018-12-13T17:36:17.581Z,75.81
2018-12-13T17:38:46.371Z,75.46
2018-12-13T17:41:15.672Z,75.81
2018-12-13T17:43:44.693Z,75.11
2018-12-13T17:46:13.030Z,76.15
2018-12-13T17:48:41.342Z,75.13
2018-12-13T17:51:09.669Z,75.43
2018-12-13T17:53:38.201Z,75.35
2018-12-13T17:56:06.546Z,75.41
2018-12-13T17:58:34.857Z,75.11
2018-12-13T18:01:03.211Z,74.63
2018-12-13T18:03:31.549Z,75.66
2018-12-13T18:06:00.108Z,75.79
2018-12-13T18:08:28.466Z,75.73
2018-12-13T18:10:57.079Z,74.62
2018-12-13T18:13:25.417Z,74.32
2018-12-13T18:15:53.770Z,74.47
2018-12-13T18:18:22.092Z,74.06
2018-12-13T18:20:50.454Z,75.08
2018-12-13T18:23:19.181Z,75.11
2018-12-13T18:25:47.505Z,74.48
2018-12-13T18:28:15.890Z,75.74
2018-12-13T18:30:44.242Z,75.05
2018-12-13T18:36:11.145Z,75.48
2018-12-13T18:38:39.456Z,76.05
2018-12-13T18:41:07.813Z,76.35
2018-12-13T18:43:36.573Z,75.09
2018-12-13T18:46:04.933Z,76.33
2018-12-13T18:48:33.734Z,75.73
2018-12-13T18:51:02.377Z,76.49
2018-12-13T18:53:30.825Z,75.62
2018-12-13T18:55:59.165Z,75.93
2018-12-13T18:58:27.509Z,75.44
2018-12-13T19:00:55.994Z,75.39
2018-12-13T19:03:24.313Z,75.53
2018-12-13T19:05:57.148Z,76.86
2018-12-13T19:08:32.192Z,75.94
2018-12-13T19:11:02.056Z,76.77
2018-12-13T19:13:30.381Z,75.69
2018-12-13T19:16:03.073Z,75.64
2018-12-13T19:18:31.718Z,75.75
2018-12-13T19:21:04.119Z,75.75
2018-12-13T19:23:36.820Z,75.66
2018-12-13T19:26:06.017Z,76.50
2018-12-13T19:28:36.261Z,76.28
2018-12-13T19:31:07.663Z,75.88
2018-12-13T19:33:37.514Z,74.39
2018-12-13T19:36:06.057Z,75.81
2018-12-13T19:38:34.402Z,75.59
2018-12-13T19:41:11.359Z,75.62
2018-12-13T19:43:42.046Z,74.86
2018-12-13T19:46:13.486Z,74.79
2018-12-13T19:48:48.698Z,75.72
2018-12-13T19:51:18.033Z,74.76
2018-12-13T19:53:49.561Z,76.07
2018-12-13T19:56:21.994Z,75.97
2018-12-13T19:58:51.998Z,76.43
2018-12-13T20:01:20.640Z,76.03
2018-12-13T20:03:51.966Z,76.54
2018-12-13T20:06:26.642Z,76.68
2018-12-13T20:09:01.224Z,76.76
2018-12-13T20:11:31.088Z,75.74
2018-12-13T20:13:59.489Z,75.76
2018-12-13T20:16:30.529Z,75.77
2018-12-13T20:19:00.639Z,76.79
2018-12-13T20:21:30.261Z,76.20
2018-12-13T20:23:59.494Z,76.30
2018-12-13T20:26:30.394Z,77.26
2018-12-13T20:29:00.671Z,76.66
2018-12-13T20:31:29.609Z,76.91
2018-12-13T20:33:58.291Z,76.05
2018-12-13T20:36:28.467Z,76.16
2018-12-13T20:38:56.842Z,76.56
2018-12-13T20:41:26.073Z,76.41
2018-12-13T20:43:54.388Z,76.99
2018-12-13T20:46:22.706Z,75.44
2018-12-13T20:48:51.067Z,77.03
2018-12-13T20:51:19.394Z,75.12
2018-12-13T20:53:48.076Z,76.75
2018-12-13T20:56:16.422Z,76.07
2018-12-13T20:58:44.754Z,74.87
2018-12-13T21:01:13.109Z,75.31
2018-12-13T21:03:41.496Z,75.44
2018-12-13T21:06:09.811Z,75.21
2018-12-13T21:08:43.564Z,75.95
2018-12-13T21:11:17.505Z,75.58
2018-12-13T21:13:50.101Z,76.50
2018-12-13T21:16:20.172Z,75.43
2018-12-13T21:18:51.162Z,75.89
2018-12-13T21:21:20.867Z,75.51
2018-12-13T21:23:54.060Z,76.02
2018-12-13T21:26:24.372Z,75.80
2018-12-13T21:28:52.706Z,75.53
2018-12-13T21:31:21.006Z,76.29
2018-12-13T21:33:49.286Z,75.19
2018-12-13T21:36:17.590Z,75.18
2018-12-13T21:38:46.333Z,75.37
2018-12-13T21:41:14.632Z,75.72
2018-12-13T21:43:42.958Z,75.64
2018-12-13T21:46:11.277Z,76.41
2018-12-13T21:48:39.562Z,75.60
2018-12-13T21:51:07.849Z,76.30
2018-12-13T21:53:36.825Z,76.55
2018-12-13T21:56:05.463Z,76.23
2018-12-13T21:58:33.887Z,75.09
2018-12-13T22:01:02.677Z,75.79
2018-12-13T22:03:30.953Z,75.71
2018-12-13T22:05:59.241Z,75.96
2018-12-13T22:08:28.145Z,74.63
2018-12-13T22:10:56.649Z,75.30
2018-12-13T22:13:26.798Z,75.86
2018-12-13T22:15:56.218Z,76.45
2018-12-13T22:18:24.736Z,75.78
2018-12-13T22:20:53.124Z,75.93
2018-12-13T22:23:21.439Z,75.76
2018-12-13T22:25:49.722Z,76.47
2018-12-13T22:28:18.005Z,76.54
2018-12-13T22:30:46.277Z,76.30
2018-12-13T22:33:14.545Z,75.66
2018-12-13T22:35:43.117Z,76.15
2018-12-13T22:38:11.485Z,74.94
2018-12-13T22:40:39.757Z,76.72
2018-12-13T22:43:08.429Z,76.29
2018-12-13T22:45:36.894Z,76.98
2018-12-13T22:48:05.307Z,77.25
2018-12-13T22:50:33.597Z,76.36
2018-12-13T22:53:02.297Z,76.41
2018-12-13T22:55:31.479Z,75.10
2018-12-13T22:57:59.829Z,76.43
2018-12-13T23:00:28.622Z,77.26
2018-12-13T23:02:57.025Z,75.83
2018-12-13T23:05:25.777Z,75.56
2018-12-13T23:07:54.290Z,75.65
2018-12-13T23:10:23.254Z,75.18
2018-12-13T23:12:51.542Z,74.87
2018-12-13T23:15:20.221Z,75.04
2018-12-13T23:17:48.647Z,76.71
2018-12-13T23:20:17.177Z,76.30
2018-12-13T23:22:45.673Z,76.48
2018-12-13T23:25:14.250Z,77.09
2018-12-13T23:27:42.873Z,75.25
2018-12-13T23:30:11.688Z,75.37
2018-12-13T23:32:41.637Z,75.58
2018-12-13T23:35:10.276Z,75.48
2018-12-13T23:37:38.550Z,73.75
2018-12-13T23:40:06.964Z,74.60
2018-12-13T23:42:35.745Z,73.53
2018-12-13T23:45:05.218Z,73.98
2018-12-13T23:47:33.509Z,72.84
2018-12-13T23:50:01.782Z,72.76
2018-12-13T23:52:30.085Z,72.98
2018-12-13T23:54:58.455Z,70.52
2018-12-13T23:57:26.734Z,71.12
2018-12-13T23:59:55.137Z,71.15
